sensor_id;sensor_type;location;lat;lon;timestamp;P1;durP1;ratioP1;P2;durP2;ratioP2
33022;SDS011;19390;51.460;5.710;2022-07-05T00:00:03;7.38;;;4.05;;
33022;SDS011;19390;51.460;5.710;2022-07-05T00:02:30;4.85;;;4.05;;
33022;SDS011;19390;51.460;5.710;2022-07-05T00:04:56;4.13;;;3.55;;
33022;SDS011;19390;51.460;5.710;2022-07-05T00:07:21;5.90;;;3.28;;
33022;SDS011;19390;51.460;5.710;2022-07-05T00:09:48;4.63;;;3.42;;
33022;SDS011;19390;51.460;5.710;2022-07-05T00:12:16;5.30;;;3.92;;
33022;SDS011;19390;51.460;5.710;2022-07-05T00:14:43;6.80;;;4.10;;
33022;SDS011;19390;51.460;5.710;2022-07-05T00:17:09;5.43;;;4.35;;
33022;SDS011;19390;51.460;5.710;2022-07-05T00:19:36;4.47;;;3.40;;
33022;SDS011;19390;51.460;5.710;2022-07-05T00:22:01;7.45;;;4.40;;
33022;SDS011;19390;51.460;5.710;2022-07-05T00:24:27;6.25;;;4.25;;
33022;SDS011;19390;51.460;5.710;2022-07-05T00:26:53;5.80;;;4.13;;
33022;SDS011;19390;51.460;5.710;2022-07-05T00:29:18;6.95;;;4.10;;
33022;SDS011;19390;51.460;5.710;2022-07-05T00:31:44;8.02;;;4.10;;
33022;SDS011;19390;51.460;5.710;2022-07-05T00:34:10;8.15;;;4.43;;
33022;SDS011;19390;51.460;5.710;2022-07-05T00:36:35;5.97;;;4.18;;
33022;SDS011;19390;51.460;5.710;2022-07-05T00:39:01;6.38;;;4.30;;
33022;SDS011;19390;51.460;5.710;2022-07-05T00:41:27;5.78;;;4.10;;
33022;SDS011;19390;51.460;5.710;2022-07-05T00:43:53;6.32;;;4.38;;
33022;SDS011;19390;51.460;5.710;2022-07-05T00:46:21;6.93;;;4.25;;
33022;SDS011;19390;51.460;5.710;2022-07-05T00:48:46;7.93;;;4.78;;
33022;SDS011;19390;51.460;5.710;2022-07-05T00:51:12;6.10;;;4.10;;
33022;SDS011;19390;51.460;5.710;2022-07-05T00:53:38;8.23;;;5.15;;
33022;SDS011;19390;51.460;5.710;2022-07-05T00:56:04;6.32;;;4.88;;
33022;SDS011;19390;51.460;5.710;2022-07-05T00:58:30;6.53;;;4.90;;
33022;SDS011;19390;51.460;5.710;2022-07-05T01:00:58;9.85;;;5.63;;
33022;SDS011;19390;51.460;5.710;2022-07-05T01:03:24;5.50;;;4.68;;
33022;SDS011;19390;51.460;5.710;2022-07-05T01:05:52;6.20;;;5.10;;
33022;SDS011;19390;51.460;5.710;2022-07-05T01:08:18;8.20;;;5.10;;
33022;SDS011;19390;51.460;5.710;2022-07-05T01:10:44;6.30;;;4.68;;
33022;SDS011;19390;51.460;5.710;2022-07-05T01:13:10;7.03;;;5.38;;
33022;SDS011;19390;51.460;5.710;2022-07-05T01:15:36;6.10;;;5.50;;
33022;SDS011;19390;51.460;5.710;2022-07-05T01:18:02;5.97;;;5.30;;
33022;SDS011;19390;51.460;5.710;2022-07-05T01:20:30;6.80;;;4.68;;
33022;SDS011;19390;51.460;5.710;2022-07-05T01:22:57;6.80;;;5.20;;
33022;SDS011;19390;51.460;5.710;2022-07-05T01:25:27;6.78;;;5.63;;
33022;SDS011;19390;51.460;5.710;2022-07-05T01:27:55;7.22;;;5.90;;
33022;SDS011;19390;51.460;5.710;2022-07-05T01:30:22;8.32;;;5.82;;
33022;SDS011;19390;51.460;5.710;2022-07-05T01:32:48;5.95;;;5.35;;
33022;SDS011;19390;51.460;5.710;2022-07-05T01:35:14;10.02;;;5.70;;
33022;SDS011;19390;51.460;5.710;2022-07-05T01:37:48;7.03;;;5.90;;
33022;SDS011;19390;51.460;5.710;2022-07-05T01:40:14;6.63;;;5.72;;
33022;SDS011;19390;51.460;5.710;2022-07-05T01:42:40;8.43;;;6.13;;
33022;SDS011;19390;51.460;5.710;2022-07-05T01:45:05;6.55;;;5.88;;
33022;SDS011;19390;51.460;5.710;2022-07-05T01:47:35;7.43;;;6.20;;
33022;SDS011;19390;51.460;5.710;2022-07-05T01:50:02;8.57;;;5.85;;
33022;SDS011;19390;51.460;5.710;2022-07-05T01:52:31;8.35;;;6.18;;
33022;SDS011;19390;51.460;5.710;2022-07-05T01:54:58;6.53;;;5.78;;
33022;SDS011;19390;51.460;5.710;2022-07-05T01:57:26;6.70;;;6.03;;
33022;SDS011;19390;51.460;5.710;2022-07-05T01:59:51;9.18;;;6.60;;
33022;SDS011;19390;51.460;5.710;2022-07-05T02:02:17;9.40;;;6.82;;
33022;SDS011;19390;51.460;5.710;2022-07-05T02:04:43;13.02;;;7.50;;
33022;SDS011;19390;51.460;5.710;2022-07-05T02:07:09;9.73;;;7.50;;
33022;SDS011;19390;51.460;5.710;2022-07-05T02:09:35;9.43;;;6.78;;
33022;SDS011;19390;51.460;5.710;2022-07-05T02:12:02;15.38;;;8.10;;
33022;SDS011;19390;51.460;5.710;2022-07-05T02:14:28;11.65;;;7.55;;
33022;SDS011;19390;51.460;5.710;2022-07-05T02:16:54;9.23;;;7.97;;
33022;SDS011;19390;51.460;5.710;2022-07-05T02:19:20;15.13;;;7.93;;
33022;SDS011;19390;51.460;5.710;2022-07-05T02:21:45;16.10;;;8.35;;
33022;SDS011;19390;51.460;5.710;2022-07-05T02:24:11;12.55;;;8.63;;
33022;SDS011;19390;51.460;5.710;2022-07-05T02:26:37;17.25;;;7.13;;
33022;SDS011;19390;51.460;5.710;2022-07-05T02:29:03;15.57;;;8.20;;
33022;SDS011;19390;51.460;5.710;2022-07-05T02:31:29;13.60;;;7.95;;
33022;SDS011;19390;51.460;5.710;2022-07-05T02:33:55;10.68;;;7.78;;
33022;SDS011;19390;51.460;5.710;2022-07-05T02:36:21;8.35;;;7.10;;
33022;SDS011;19390;51.460;5.710;2022-07-05T02:38:47;13.32;;;7.50;;
33022;SDS011;19390;51.460;5.710;2022-07-05T02:41:12;12.15;;;8.00;;
33022;SDS011;19390;51.460;5.710;2022-07-05T02:43:39;11.88;;;8.48;;
33022;SDS011;19390;51.460;5.710;2022-07-05T02:46:05;8.30;;;7.38;;
33022;SDS011;19390;51.460;5.710;2022-07-05T02:48:33;10.57;;;7.95;;
33022;SDS011;19390;51.460;5.710;2022-07-05T02:50:59;10.18;;;7.35;;
33022;SDS011;19390;51.460;5.710;2022-07-05T02:53:26;16.15;;;7.75;;
33022;SDS011;19390;51.460;5.710;2022-07-05T02:55:51;17.05;;;8.00;;
33022;SDS011;19390;51.460;5.710;2022-07-05T02:58:17;14.18;;;7.38;;
33022;SDS011;19390;51.460;5.710;2022-07-05T03:00:43;13.88;;;8.23;;
33022;SDS011;19390;51.460;5.710;2022-07-05T03:03:10;16.80;;;8.07;;
33022;SDS011;19390;51.460;5.710;2022-07-05T03:05:35;16.15;;;7.72;;
33022;SDS011;19390;51.460;5.710;2022-07-05T03:08:01;19.65;;;7.55;;
33022;SDS011;19390;51.460;5.710;2022-07-05T03:10:26;15.73;;;9.55;;
33022;SDS011;19390;51.460;5.710;2022-07-05T03:12:52;24.50;;;8.77;;
33022;SDS011;19390;51.460;5.710;2022-07-05T03:15:18;15.52;;;8.43;;
33022;SDS011;19390;51.460;5.710;2022-07-05T03:17:43;20.00;;;8.50;;
33022;SDS011;19390;51.460;5.710;2022-07-05T03:20:09;20.02;;;8.60;;
33022;SDS011;19390;51.460;5.710;2022-07-05T03:22:35;11.65;;;7.55;;
33022;SDS011;19390;51.460;5.710;2022-07-05T03:25:00;12.07;;;7.57;;
33022;SDS011;19390;51.460;5.710;2022-07-05T03:27:27;15.60;;;7.75;;
33022;SDS011;19390;51.460;5.710;2022-07-05T03:29:53;14.15;;;9.15;;
33022;SDS011;19390;51.460;5.710;2022-07-05T03:32:18;8.57;;;7.72;;
33022;SDS011;19390;51.460;5.710;2022-07-05T03:34:44;19.83;;;8.80;;
33022;SDS011;19390;51.460;5.710;2022-07-05T03:37:10;9.60;;;7.72;;
33022;SDS011;19390;51.460;5.710;2022-07-05T03:39:35;13.30;;;8.32;;
33022;SDS011;19390;51.460;5.710;2022-07-05T03:42:01;16.27;;;8.93;;
33022;SDS011;19390;51.460;5.710;2022-07-05T03:44:27;15.32;;;9.23;;
33022;SDS011;19390;51.460;5.710;2022-07-05T03:46:52;9.20;;;8.30;;
33022;SDS011;19390;51.460;5.710;2022-07-05T03:49:18;11.15;;;8.77;;
33022;SDS011;19390;51.460;5.710;2022-07-05T03:51:43;10.95;;;9.23;;
33022;SDS011;19390;51.460;5.710;2022-07-05T03:54:09;11.10;;;8.80;;
33022;SDS011;19390;51.460;5.710;2022-07-05T03:56:35;11.70;;;8.48;;
33022;SDS011;19390;51.460;5.710;2022-07-05T03:59:00;12.45;;;8.52;;
33022;SDS011;19390;51.460;5.710;2022-07-05T04:01:26;10.27;;;7.78;;
33022;SDS011;19390;51.460;5.710;2022-07-05T04:03:51;13.85;;;9.60;;
33022;SDS011;19390;51.460;5.710;2022-07-05T04:06:17;12.50;;;9.50;;
33022;SDS011;19390;51.460;5.710;2022-07-05T04:08:43;14.88;;;9.73;;
33022;SDS011;19390;51.460;5.710;2022-07-05T04:11:08;13.32;;;9.68;;
33022;SDS011;19390;51.460;5.710;2022-07-05T04:13:37;12.15;;;9.75;;
33022;SDS011;19390;51.460;5.710;2022-07-05T04:16:04;13.23;;;9.80;;
33022;SDS011;19390;51.460;5.710;2022-07-05T04:18:29;18.60;;;11.23;;
33022;SDS011;19390;51.460;5.710;2022-07-05T04:20:55;13.43;;;10.82;;
33022;SDS011;19390;51.460;5.710;2022-07-05T04:23:21;24.67;;;11.25;;
33022;SDS011;19390;51.460;5.710;2022-07-05T04:25:46;15.30;;;11.88;;
33022;SDS011;19390;51.460;5.710;2022-07-05T04:28:12;19.27;;;12.45;;
33022;SDS011;19390;51.460;5.710;2022-07-05T04:30:38;15.07;;;11.95;;
33022;SDS011;19390;51.460;5.710;2022-07-05T04:33:03;16.48;;;11.23;;
33022;SDS011;19390;51.460;5.710;2022-07-05T04:35:29;12.75;;;10.82;;
33022;SDS011;19390;51.460;5.710;2022-07-05T04:37:55;13.70;;;11.20;;
33022;SDS011;19390;51.460;5.710;2022-07-05T04:40:20;12.23;;;10.82;;
33022;SDS011;19390;51.460;5.710;2022-07-05T04:42:46;15.73;;;10.15;;
33022;SDS011;19390;51.460;5.710;2022-07-05T04:45:11;12.50;;;11.10;;
33022;SDS011;19390;51.460;5.710;2022-07-05T04:47:37;14.57;;;11.00;;
33022;SDS011;19390;51.460;5.710;2022-07-05T04:50:03;15.93;;;9.73;;
33022;SDS011;19390;51.460;5.710;2022-07-05T04:52:29;16.50;;;10.85;;
33022;SDS011;19390;51.460;5.710;2022-07-05T04:54:55;14.10;;;10.30;;
33022;SDS011;19390;51.460;5.710;2022-07-05T04:57:21;14.32;;;10.02;;
33022;SDS011;19390;51.460;5.710;2022-07-05T04:59:47;13.18;;;10.02;;
33022;SDS011;19390;51.460;5.710;2022-07-05T05:02:13;14.82;;;10.82;;
33022;SDS011;19390;51.460;5.710;2022-07-05T05:04:38;13.18;;;10.80;;
33022;SDS011;19390;51.460;5.710;2022-07-05T05:07:04;13.52;;;10.05;;
33022;SDS011;19390;51.460;5.710;2022-07-05T05:09:30;13.30;;;9.77;;
33022;SDS011;19390;51.460;5.710;2022-07-05T05:11:55;14.27;;;10.38;;
33022;SDS011;19390;51.460;5.710;2022-07-05T05:14:21;10.95;;;8.68;;
33022;SDS011;19390;51.460;5.710;2022-07-05T05:16:47;11.38;;;8.40;;
33022;SDS011;19390;51.460;5.710;2022-07-05T05:19:12;11.90;;;9.32;;
33022;SDS011;19390;51.460;5.710;2022-07-05T05:21:38;12.70;;;9.38;;
33022;SDS011;19390;51.460;5.710;2022-07-05T05:24:04;13.70;;;9.43;;
33022;SDS011;19390;51.460;5.710;2022-07-05T05:26:30;11.18;;;9.95;;
33022;SDS011;19390;51.460;5.710;2022-07-05T05:28:55;17.55;;;10.05;;
33022;SDS011;19390;51.460;5.710;2022-07-05T05:31:21;13.32;;;10.15;;
33022;SDS011;19390;51.460;5.710;2022-07-05T05:33:47;18.65;;;9.95;;
33022;SDS011;19390;51.460;5.710;2022-07-05T05:36:12;20.70;;;9.52;;
33022;SDS011;19390;51.460;5.710;2022-07-05T05:38:38;19.50;;;9.45;;
33022;SDS011;19390;51.460;5.710;2022-07-05T05:41:04;16.90;;;8.73;;
33022;SDS011;19390;51.460;5.710;2022-07-05T05:43:30;19.83;;;7.63;;
33022;SDS011;19390;51.460;5.710;2022-07-05T05:45:56;20.73;;;8.90;;
33022;SDS011;19390;51.460;5.710;2022-07-05T05:48:21;20.08;;;9.73;;
33022;SDS011;19390;51.460;5.710;2022-07-05T05:50:47;16.25;;;8.88;;
33022;SDS011;19390;51.460;5.710;2022-07-05T05:53:13;15.65;;;8.43;;
33022;SDS011;19390;51.460;5.710;2022-07-05T05:55:39;13.75;;;8.38;;
33022;SDS011;19390;51.460;5.710;2022-07-05T06:00:43;9.55;;;7.38;;
33022;SDS011;19390;51.460;5.710;2022-07-05T06:03:09;12.70;;;8.75;;
33022;SDS011;19390;51.460;5.710;2022-07-05T06:05:34;10.18;;;7.10;;
33022;SDS011;19390;51.460;5.710;2022-07-05T06:08:00;10.02;;;7.65;;
33022;SDS011;19390;51.460;5.710;2022-07-05T06:10:27;9.68;;;6.93;;
33022;SDS011;19390;51.460;5.710;2022-07-05T06:12:57;9.73;;;6.95;;
33022;SDS011;19390;51.460;5.710;2022-07-05T06:15:24;8.25;;;6.50;;
33022;SDS011;19390;51.460;5.710;2022-07-05T06:17:50;10.95;;;7.65;;
33022;SDS011;19390;51.460;5.710;2022-07-05T06:20:17;11.52;;;8.57;;
33022;SDS011;19390;51.460;5.710;2022-07-05T06:22:56;10.15;;;9.15;;
33022;SDS011;19390;51.460;5.710;2022-07-05T06:25:23;11.70;;;10.43;;
33022;SDS011;19390;51.460;5.710;2022-07-05T06:27:49;12.77;;;11.43;;
33022;SDS011;19390;51.460;5.710;2022-07-05T06:30:17;14.90;;;10.18;;
33022;SDS011;19390;51.460;5.710;2022-07-05T06:32:44;12.07;;;9.00;;
33022;SDS011;19390;51.460;5.710;2022-07-05T06:35:11;9.35;;;8.45;;
33022;SDS011;19390;51.460;5.710;2022-07-05T06:37:40;8.27;;;7.45;;
33022;SDS011;19390;51.460;5.710;2022-07-05T06:40:16;9.45;;;8.05;;
33022;SDS011;19390;51.460;5.710;2022-07-05T06:42:43;11.00;;;8.07;;
33022;SDS011;19390;51.460;5.710;2022-07-05T06:45:09;11.00;;;7.90;;
33022;SDS011;19390;51.460;5.710;2022-07-05T06:47:34;8.93;;;6.80;;
33022;SDS011;19390;51.460;5.710;2022-07-05T06:50:00;9.18;;;7.10;;
33022;SDS011;19390;51.460;5.710;2022-07-05T06:52:30;9.07;;;8.02;;
33022;SDS011;19390;51.460;5.710;2022-07-05T06:54:57;7.25;;;5.97;;
33022;SDS011;19390;51.460;5.710;2022-07-05T06:57:24;6.97;;;5.50;;
33022;SDS011;19390;51.460;5.710;2022-07-05T06:59:50;8.07;;;5.82;;
33022;SDS011;19390;51.460;5.710;2022-07-05T07:02:16;5.95;;;4.40;;
33022;SDS011;19390;51.460;5.710;2022-07-05T07:04:42;5.05;;;3.90;;
33022;SDS011;19390;51.460;5.710;2022-07-05T07:07:08;7.22;;;4.10;;
33022;SDS011;19390;51.460;5.710;2022-07-05T07:09:55;5.82;;;3.78;;
33022;SDS011;19390;51.460;5.710;2022-07-05T07:12:22;6.45;;;3.75;;
33022;SDS011;19390;51.460;5.710;2022-07-05T07:14:47;5.30;;;3.88;;
33022;SDS011;19390;51.460;5.710;2022-07-05T07:17:13;5.95;;;4.38;;
33022;SDS011;19390;51.460;5.710;2022-07-05T07:19:39;5.03;;;3.92;;
33022;SDS011;19390;51.460;5.710;2022-07-05T07:22:04;7.45;;;3.90;;
33022;SDS011;19390;51.460;5.710;2022-07-05T07:24:30;4.97;;;3.58;;
33022;SDS011;19390;51.460;5.710;2022-07-05T07:26:55;5.75;;;3.90;;
33022;SDS011;19390;51.460;5.710;2022-07-05T07:29:27;4.75;;;3.63;;
33022;SDS011;19390;51.460;5.710;2022-07-05T07:31:57;5.25;;;3.15;;
33022;SDS011;19390;51.460;5.710;2022-07-05T07:34:24;5.53;;;3.28;;
33022;SDS011;19390;51.460;5.710;2022-07-05T07:36:50;6.68;;;3.83;;
33022;SDS011;19390;51.460;5.710;2022-07-05T07:39:16;6.28;;;3.60;;
33022;SDS011;19390;51.460;5.710;2022-07-05T07:41:42;5.85;;;3.80;;
33022;SDS011;19390;51.460;5.710;2022-07-05T07:44:07;3.10;;;2.63;;
33022;SDS011;19390;51.460;5.710;2022-07-05T07:46:33;5.05;;;3.30;;
33022;SDS011;19390;51.460;5.710;2022-07-05T07:48:59;3.45;;;2.00;;
33022;SDS011;19390;51.460;5.710;2022-07-05T07:51:24;6.60;;;1.77;;
33022;SDS011;19390;51.460;5.710;2022-07-05T07:53:50;4.03;;;1.70;;
33022;SDS011;19390;51.460;5.710;2022-07-05T07:56:16;6.35;;;1.67;;
33022;SDS011;19390;51.460;5.710;2022-07-05T07:58:42;3.10;;;1.95;;
33022;SDS011;19390;51.460;5.710;2022-07-05T08:01:08;6.07;;;3.20;;
33022;SDS011;19390;51.460;5.710;2022-07-05T08:03:36;5.35;;;2.70;;
33022;SDS011;19390;51.460;5.710;2022-07-05T08:06:03;7.13;;;2.60;;
33022;SDS011;19390;51.460;5.710;2022-07-05T08:08:28;7.15;;;2.65;;
33022;SDS011;19390;51.460;5.710;2022-07-05T08:10:54;4.22;;;2.65;;
33022;SDS011;19390;51.460;5.710;2022-07-05T08:13:19;8.43;;;2.58;;
33022;SDS011;19390;51.460;5.710;2022-07-05T08:15:45;8.02;;;3.80;;
33022;SDS011;19390;51.460;5.710;2022-07-05T08:18:11;10.43;;;4.18;;
33022;SDS011;19390;51.460;5.710;2022-07-05T08:20:55;9.43;;;2.90;;
33022;SDS011;19390;51.460;5.710;2022-07-05T08:23:39;8.95;;;3.45;;
33022;SDS011;19390;51.460;5.710;2022-07-05T08:26:04;11.90;;;4.90;;
33022;SDS011;19390;51.460;5.710;2022-07-05T08:28:30;14.20;;;5.32;;
33022;SDS011;19390;51.460;5.710;2022-07-05T08:30:55;21.02;;;6.22;;
33022;SDS011;19390;51.460;5.710;2022-07-05T08:33:21;13.77;;;4.90;;
33022;SDS011;19390;51.460;5.710;2022-07-05T08:35:49;12.65;;;4.80;;
33022;SDS011;19390;51.460;5.710;2022-07-05T08:38:14;11.93;;;4.32;;
33022;SDS011;19390;51.460;5.710;2022-07-05T08:40:41;12.60;;;4.45;;
33022;SDS011;19390;51.460;5.710;2022-07-05T08:43:10;12.57;;;4.18;;
33022;SDS011;19390;51.460;5.710;2022-07-05T08:45:38;11.18;;;3.72;;
33022;SDS011;19390;51.460;5.710;2022-07-05T08:48:04;8.73;;;3.92;;
33022;SDS011;19390;51.460;5.710;2022-07-05T08:50:30;10.07;;;3.80;;
33022;SDS011;19390;51.460;5.710;2022-07-05T08:52:59;7.78;;;3.10;;
33022;SDS011;19390;51.460;5.710;2022-07-05T08:55:26;9.80;;;4.18;;
33022;SDS011;19390;51.460;5.710;2022-07-05T08:57:51;9.68;;;3.75;;
33022;SDS011;19390;51.460;5.710;2022-07-05T09:00:17;8.68;;;3.40;;
33022;SDS011;19390;51.460;5.710;2022-07-05T09:02:43;8.25;;;3.15;;
33022;SDS011;19390;51.460;5.710;2022-07-05T09:05:10;7.88;;;2.40;;
33022;SDS011;19390;51.460;5.710;2022-07-05T09:07:38;8.52;;;2.80;;
33022;SDS011;19390;51.460;5.710;2022-07-05T09:10:09;6.95;;;3.08;;
33022;SDS011;19390;51.460;5.710;2022-07-05T09:12:37;6.25;;;3.17;;
33022;SDS011;19390;51.460;5.710;2022-07-05T09:15:02;6.90;;;2.83;;
33022;SDS011;19390;51.460;5.710;2022-07-05T09:17:30;6.88;;;2.70;;
33022;SDS011;19390;51.460;5.710;2022-07-05T09:20:05;8.20;;;3.33;;
33022;SDS011;19390;51.460;5.710;2022-07-05T09:22:47;6.28;;;3.15;;
33022;SDS011;19390;51.460;5.710;2022-07-05T09:27:50;5.82;;;2.80;;
33022;SDS011;19390;51.460;5.710;2022-07-05T09:30:24;3.08;;;2.35;;
33022;SDS011;19390;51.460;5.710;2022-07-05T09:33:04;5.43;;;1.90;;
33022;SDS011;19390;51.460;5.710;2022-07-05T09:35:32;3.83;;;1.55;;
33022;SDS011;19390;51.460;5.710;2022-07-05T09:37:59;8.35;;;2.63;;
33022;SDS011;19390;51.460;5.710;2022-07-05T09:40:28;3.67;;;1.65;;
33022;SDS011;19390;51.460;5.710;2022-07-05T09:43:15;5.30;;;1.42;;
33022;SDS011;19390;51.460;5.710;2022-07-05T09:46:04;5.55;;;2.05;;
33022;SDS011;19390;51.460;5.710;2022-07-05T09:48:31;5.85;;;2.10;;
33022;SDS011;19390;51.460;5.710;2022-07-05T09:51:11;4.13;;;1.50;;
33022;SDS011;19390;51.460;5.710;2022-07-05T09:53:47;7.38;;;2.40;;
33022;SDS011;19390;51.460;5.710;2022-07-05T09:56:13;5.45;;;1.70;;
33022;SDS011;19390;51.460;5.710;2022-07-05T09:58:39;7.85;;;1.70;;
33022;SDS011;19390;51.460;5.710;2022-07-05T10:01:22;6.18;;;2.25;;
33022;SDS011;19390;51.460;5.710;2022-07-05T10:03:52;4.88;;;1.90;;
33022;SDS011;19390;51.460;5.710;2022-07-05T10:06:19;4.10;;;2.00;;
33022;SDS011;19390;51.460;5.710;2022-07-05T10:08:48;9.18;;;1.85;;
33022;SDS011;19390;51.460;5.710;2022-07-05T10:11:15;5.43;;;1.83;;
33022;SDS011;19390;51.460;5.710;2022-07-05T10:13:42;5.82;;;1.58;;
33022;SDS011;19390;51.460;5.710;2022-07-05T10:16:13;4.30;;;1.70;;
33022;SDS011;19390;51.460;5.710;2022-07-05T10:18:45;4.43;;;1.67;;
33022;SDS011;19390;51.460;5.710;2022-07-05T10:21:13;4.35;;;1.90;;
33022;SDS011;19390;51.460;5.710;2022-07-05T10:23:43;4.97;;;1.50;;
33022;SDS011;19390;51.460;5.710;2022-07-05T10:26:10;2.15;;;1.13;;
33022;SDS011;19390;51.460;5.710;2022-07-05T10:28:37;3.33;;;1.30;;
33022;SDS011;19390;51.460;5.710;2022-07-05T10:31:06;3.65;;;1.00;;
33022;SDS011;19390;51.460;5.710;2022-07-05T10:33:35;3.08;;;1.23;;
33022;SDS011;19390;51.460;5.710;2022-07-05T10:36:03;4.30;;;0.80;;
33022;SDS011;19390;51.460;5.710;2022-07-05T10:38:29;3.25;;;1.20;;
33022;SDS011;19390;51.460;5.710;2022-07-05T10:40:59;2.20;;;1.10;;
33022;SDS011;19390;51.460;5.710;2022-07-05T10:43:28;3.92;;;1.30;;
33022;SDS011;19390;51.460;5.710;2022-07-05T10:45:53;2.95;;;1.15;;
33022;SDS011;19390;51.460;5.710;2022-07-05T10:48:20;4.00;;;1.30;;
33022;SDS011;19390;51.460;5.710;2022-07-05T11:03:47;5.18;;;1.92;;
33022;SDS011;19390;51.460;5.710;2022-07-05T11:11:24;5.43;;;1.90;;
33022;SDS011;19390;51.460;5.710;2022-07-05T11:13:50;4.85;;;2.03;;
33022;SDS011;19390;51.460;5.710;2022-07-05T11:19:04;4.80;;;1.95;;
33022;SDS011;19390;51.460;5.710;2022-07-05T11:21:35;5.28;;;2.22;;
33022;SDS011;19390;51.460;5.710;2022-07-05T11:26:49;5.00;;;2.63;;
33022;SDS011;19390;51.460;5.710;2022-07-05T11:32:08;7.03;;;2.60;;
33022;SDS011;19390;51.460;5.710;2022-07-05T11:34:54;6.70;;;3.20;;
33022;SDS011;19390;51.460;5.710;2022-07-05T11:37:25;4.78;;;1.98;;
33022;SDS011;19390;51.460;5.710;2022-07-05T11:42:37;6.22;;;2.60;;
33022;SDS011;19390;51.460;5.710;2022-07-05T11:45:10;7.68;;;3.15;;
33022;SDS011;19390;51.460;5.710;2022-07-05T11:47:36;3.60;;;2.40;;
33022;SDS011;19390;51.460;5.710;2022-07-05T11:50:02;3.45;;;2.40;;
33022;SDS011;19390;51.460;5.710;2022-07-05T11:52:29;4.30;;;2.83;;
33022;SDS011;19390;51.460;5.710;2022-07-05T11:54:57;5.68;;;2.53;;
33022;SDS011;19390;51.460;5.710;2022-07-05T11:57:23;8.02;;;2.80;;
33022;SDS011;19390;51.460;5.710;2022-07-05T11:59:49;4.95;;;3.28;;
33022;SDS011;19390;51.460;5.710;2022-07-05T12:02:16;4.22;;;2.85;;
33022;SDS011;19390;51.460;5.710;2022-07-05T12:04:52;5.85;;;2.90;;
33022;SDS011;19390;51.460;5.710;2022-07-05T12:07:32;7.15;;;3.40;;
33022;SDS011;19390;51.460;5.710;2022-07-05T12:10:00;7.57;;;3.33;;
33022;SDS011;19390;51.460;5.710;2022-07-05T12:12:53;5.97;;;2.30;;
33022;SDS011;19390;51.460;5.710;2022-07-05T12:15:20;4.47;;;1.98;;
33022;SDS011;19390;51.460;5.710;2022-07-05T12:17:49;4.20;;;2.15;;
33022;SDS011;19390;51.460;5.710;2022-07-05T12:20:22;4.13;;;2.58;;
33022;SDS011;19390;51.460;5.710;2022-07-05T12:22:51;3.38;;;1.50;;
33022;SDS011;19390;51.460;5.710;2022-07-05T12:25:21;7.05;;;2.08;;
33022;SDS011;19390;51.460;5.710;2022-07-05T12:27:49;3.88;;;1.80;;
33022;SDS011;19390;51.460;5.710;2022-07-05T12:30:16;3.97;;;1.77;;
33022;SDS011;19390;51.460;5.710;2022-07-05T12:32:55;3.67;;;1.52;;
33022;SDS011;19390;51.460;5.710;2022-07-05T12:35:29;3.53;;;1.60;;
33022;SDS011;19390;51.460;5.710;2022-07-05T12:37:55;3.55;;;1.65;;
33022;SDS011;19390;51.460;5.710;2022-07-05T12:40:22;3.33;;;1.50;;
33022;SDS011;19390;51.460;5.710;2022-07-05T12:42:59;4.25;;;1.60;;
33022;SDS011;19390;51.460;5.710;2022-07-05T12:45:30;3.65;;;1.50;;
33022;SDS011;19390;51.460;5.710;2022-07-05T12:47:57;5.25;;;1.73;;
33022;SDS011;19390;51.460;5.710;2022-07-05T12:50:28;2.47;;;1.58;;
33022;SDS011;19390;51.460;5.710;2022-07-05T12:52:56;3.50;;;1.45;;
33022;SDS011;19390;51.460;5.710;2022-07-05T12:55:50;3.83;;;1.13;;
33022;SDS011;19390;51.460;5.710;2022-07-05T13:01:38;3.08;;;1.40;;
33022;SDS011;19390;51.460;5.710;2022-07-05T13:09:05;4.93;;;1.80;;
33022;SDS011;19390;51.460;5.710;2022-07-05T13:11:31;2.92;;;1.60;;
33022;SDS011;19390;51.460;5.710;2022-07-05T13:13:57;6.65;;;1.90;;
33022;SDS011;19390;51.460;5.710;2022-07-05T13:16:23;4.78;;;1.30;;
33022;SDS011;19390;51.460;5.710;2022-07-05T13:18:48;5.18;;;1.90;;
33022;SDS011;19390;51.460;5.710;2022-07-05T13:21:14;2.40;;;1.30;;
33022;SDS011;19390;51.460;5.710;2022-07-05T13:23:39;4.07;;;1.50;;
33022;SDS011;19390;51.460;5.710;2022-07-05T13:26:05;3.63;;;1.30;;
33022;SDS011;19390;51.460;5.710;2022-07-05T13:28:31;1.40;;;1.02;;
33022;SDS011;19390;51.460;5.710;2022-07-05T13:30:57;3.67;;;1.35;;
33022;SDS011;19390;51.460;5.710;2022-07-05T13:33:23;4.38;;;1.15;;
33022;SDS011;19390;51.460;5.710;2022-07-05T13:35:48;2.83;;;1.00;;
33022;SDS011;19390;51.460;5.710;2022-07-05T13:38:14;1.27;;;1.08;;
33022;SDS011;19390;51.460;5.710;2022-07-05T13:40:39;2.50;;;0.85;;
33022;SDS011;19390;51.460;5.710;2022-07-05T13:43:05;2.88;;;1.30;;
33022;SDS011;19390;51.460;5.710;2022-07-05T13:45:31;3.42;;;1.00;;
33022;SDS011;19390;51.460;5.710;2022-07-05T13:47:56;3.92;;;1.30;;
33022;SDS011;19390;51.460;5.710;2022-07-05T13:50:22;3.22;;;1.40;;
33022;SDS011;19390;51.460;5.710;2022-07-05T13:52:57;3.85;;;1.08;;
33022;SDS011;19390;51.460;5.710;2022-07-05T13:55:23;2.90;;;1.10;;
33022;SDS011;19390;51.460;5.710;2022-07-05T13:57:49;2.35;;;1.20;;
33022;SDS011;19390;51.460;5.710;2022-07-05T14:00:14;4.50;;;0.90;;
33022;SDS011;19390;51.460;5.710;2022-07-05T14:02:40;1.02;;;0.70;;
33022;SDS011;19390;51.460;5.710;2022-07-05T14:05:07;2.75;;;0.80;;
33022;SDS011;19390;51.460;5.710;2022-07-05T14:07:33;3.00;;;0.70;;
33022;SDS011;19390;51.460;5.710;2022-07-05T14:09:58;3.45;;;1.05;;
33022;SDS011;19390;51.460;5.710;2022-07-05T14:12:24;5.75;;;1.58;;
33022;SDS011;19390;51.460;5.710;2022-07-05T14:14:49;4.20;;;1.40;;
33022;SDS011;19390;51.460;5.710;2022-07-05T14:17:15;3.70;;;1.30;;
33022;SDS011;19390;51.460;5.710;2022-07-05T14:19:41;4.22;;;1.35;;
33022;SDS011;19390;51.460;5.710;2022-07-05T14:22:06;6.07;;;1.38;;
33022;SDS011;19390;51.460;5.710;2022-07-05T14:24:32;3.55;;;1.17;;
33022;SDS011;19390;51.460;5.710;2022-07-05T14:26:58;2.33;;;1.15;;
33022;SDS011;19390;51.460;5.710;2022-07-05T14:29:23;3.20;;;1.20;;
33022;SDS011;19390;51.460;5.710;2022-07-05T14:31:49;3.13;;;0.90;;
33022;SDS011;19390;51.460;5.710;2022-07-05T14:34:14;2.65;;;1.13;;
33022;SDS011;19390;51.460;5.710;2022-07-05T14:36:40;1.92;;;1.10;;
33022;SDS011;19390;51.460;5.710;2022-07-05T14:39:06;4.97;;;1.13;;
33022;SDS011;19390;51.460;5.710;2022-07-05T14:41:31;3.13;;;1.25;;
33022;SDS011;19390;51.460;5.710;2022-07-05T14:43:57;4.22;;;1.50;;
33022;SDS011;19390;51.460;5.710;2022-07-05T14:46:23;2.70;;;0.90;;
33022;SDS011;19390;51.460;5.710;2022-07-05T14:48:48;4.15;;;1.25;;
33022;SDS011;19390;51.460;5.710;2022-07-05T14:51:14;6.90;;;1.42;;
33022;SDS011;19390;51.460;5.710;2022-07-05T14:53:39;3.13;;;1.00;;
33022;SDS011;19390;51.460;5.710;2022-07-05T14:56:11;2.47;;;1.00;;
33022;SDS011;19390;51.460;5.710;2022-07-05T14:58:36;3.92;;;1.20;;
33022;SDS011;19390;51.460;5.710;2022-07-05T15:01:02;3.42;;;1.00;;
33022;SDS011;19390;51.460;5.710;2022-07-05T15:03:28;2.78;;;0.90;;
33022;SDS011;19390;51.460;5.710;2022-07-05T15:05:53;3.15;;;0.80;;
33022;SDS011;19390;51.460;5.710;2022-07-05T15:08:19;4.43;;;1.10;;
33022;SDS011;19390;51.460;5.710;2022-07-05T15:10:46;3.30;;;1.05;;
33022;SDS011;19390;51.460;5.710;2022-07-05T15:13:12;1.90;;;0.80;;
33022;SDS011;19390;51.460;5.710;2022-07-05T15:15:37;2.63;;;1.33;;
33022;SDS011;19390;51.460;5.710;2022-07-05T15:18:03;7.50;;;1.75;;
33022;SDS011;19390;51.460;5.710;2022-07-05T15:20:29;3.42;;;0.88;;
33022;SDS011;19390;51.460;5.710;2022-07-05T15:22:54;6.28;;;1.20;;
33022;SDS011;19390;51.460;5.710;2022-07-05T15:25:21;2.50;;;0.88;;